EZY243 EGKK-LGSK
Flight info
| Callsign | EZY243 |
|---|---|
| Flight time | N/A |
| Altitude | 39000 |
| Route | DVR2P DVR L9 KONAN/N0440F370 DCT KOK DCT RITAX DCT EDISA/N0448F390 DCT KUNOD DCT GEDSO DCT GIMIX DCT GORPA DCT DEVUL DCT LIKVI DCT REMSO DCT MEDUX UM867 KOGAT DCT ERANA DCT TSL UL617 IBIDI IBIDI1C |
| Aircraft | A20N/M-SDE2E3FGHIRWXY/LB1 |
Departure
| Time | 2026-05-06 16:51 |
|---|---|
| Airport | London Gatwick Airport (EGKK) |
Arrival
| Time | N/A |
|---|---|
| Airport | Skiathos Island National Airport (LGSK) |
| Time | Latitude | Longitude | Altitude | Speed | Heading |
|---|---|---|---|---|---|
| 2026-05-06 16:19 | 51.15575 | -0.17762 | 205 ft | 0 kts | 347° |
| 2026-05-06 16:38 | 51.15568 | -0.17760 | 204 ft | 2 kts | 347° |
| 2026-05-06 16:38 | 51.15552 | -0.17754 | 210 ft | 2 kts | 347° |
| 2026-05-06 16:38 | 51.15536 | -0.17748 | 208 ft | 2 kts | 345° |
| 2026-05-06 16:38 | 51.15521 | -0.17740 | 213 ft | 2 kts | 332° |
| 2026-05-06 16:39 | 51.15511 | -0.17721 | 209 ft | 2 kts | 262° |
| 2026-05-06 16:39 | 51.15512 | -0.17713 | 207 ft | 0 kts | 258° |
| 2026-05-06 16:43 | 51.15508 | -0.17746 | 207 ft | 9 kts | 258° |
| 2026-05-06 16:43 | 51.15487 | -0.17891 | 212 ft | 17 kts | 257° |
| 2026-05-06 16:43 | 51.15458 | -0.18105 | 210 ft | 22 kts | 258° |
| 2026-05-06 16:43 | 51.15420 | -0.18278 | 208 ft | 12 kts | 205° |
| 2026-05-06 16:44 | 51.15329 | -0.18259 | 204 ft | 15 kts | 166° |
| 2026-05-06 16:44 | 51.15220 | -0.18226 | 209 ft | 17 kts | 182° |
| 2026-05-06 16:44 | 51.15183 | -0.18358 | 212 ft | 15 kts | 259° |
| 2026-05-06 16:44 | 51.15159 | -0.18528 | 213 ft | 17 kts | 258° |
| 2026-05-06 16:45 | 51.15131 | -0.18738 | 204 ft | 22 kts | 257° |
| 2026-05-06 16:45 | 51.15095 | -0.18996 | 208 ft | 25 kts | 257° |
| 2026-05-06 16:45 | 51.15058 | -0.19270 | 205 ft | 26 kts | 258° |
| 2026-05-06 16:45 | 51.15019 | -0.19553 | 211 ft | 27 kts | 257° |
| 2026-05-06 16:46 | 51.14980 | -0.19845 | 208 ft | 26 kts | 257° |
| 2026-05-06 16:46 | 51.14942 | -0.20113 | 215 ft | 25 kts | 257° |
| 2026-05-06 16:46 | 51.14903 | -0.20392 | 204 ft | 26 kts | 257° |
| 2026-05-06 16:46 | 51.14867 | -0.20657 | 210 ft | 25 kts | 257° |
| 2026-05-06 16:47 | 51.14828 | -0.20930 | 211 ft | 22 kts | 257° |
| 2026-05-06 16:47 | 51.14796 | -0.21148 | 215 ft | 17 kts | 243° |
| 2026-05-06 16:47 | 51.14767 | -0.21300 | 213 ft | 15 kts | 258° |
| 2026-05-06 16:47 | 51.14729 | -0.21408 | 213 ft | 0 kts | 193° |
| 2026-05-06 16:48 | 51.14725 | -0.21408 | 210 ft | 0 kts | 184° |
| 2026-05-06 16:49 | 51.14703 | -0.21403 | 208 ft | 12 kts | 168° |
| 2026-05-06 16:49 | 51.14614 | -0.21324 | 212 ft | 16 kts | 169° |
| 2026-05-06 16:49 | 51.14522 | -0.21219 | 207 ft | 18 kts | 107° |
| 2026-05-06 16:49 | 51.14525 | -0.21127 | 217 ft | 0 kts | 76° |
| 2026-05-06 16:50 | 51.14527 | -0.21115 | 216 ft | 2 kts | 76° |
| 2026-05-06 16:50 | 51.14562 | -0.20877 | 207 ft | 56 kts | 77° |
| 2026-05-06 16:50 | 51.14694 | -0.19924 | 209 ft | 118 kts | 78° |
| 2026-05-06 16:50 | 51.14826 | -0.18962 | 208 ft | 149 kts | 77° |
| 2026-05-06 16:51 | 51.15128 | -0.16587 | 749 ft | 166 kts | 75° |
| 2026-05-06 16:51 | 51.15359 | -0.14782 | 1408 ft | 170 kts | 75° |
| 2026-05-06 16:51 | 51.15614 | -0.12918 | 2052 ft | 174 kts | 73° |
| 2026-05-06 16:51 | 51.15893 | -0.11009 | 2718 ft | 180 kts | 73° |
| 2026-05-06 16:52 | 51.16205 | -0.08935 | 3020 ft | 209 kts | 73° |
| 2026-05-06 16:52 | 51.16554 | -0.06521 | 3016 ft | 241 kts | 75° |
| 2026-05-06 16:52 | 51.16869 | -0.03738 | 3396 ft | 264 kts | 83° |
| 2026-05-06 16:52 | 51.16857 | -0.00825 | 4489 ft | 263 kts | 90° |
| 2026-05-06 16:53 | 51.16791 | 0.02080 | 5519 ft | 259 kts | 90° |
| 2026-05-06 16:53 | 51.16739 | 0.04985 | 6368 ft | 269 kts | 90° |
| 2026-05-06 16:53 | 51.16689 | 0.08012 | 7123 ft | 275 kts | 90° |
| 2026-05-06 16:53 | 51.16636 | 0.11034 | 8008 ft | 278 kts | 90° |
| 2026-05-06 16:54 | 51.16579 | 0.14136 | 8867 ft | 282 kts | 91° |
| 2026-05-06 16:54 | 51.16530 | 0.17285 | 9729 ft | 286 kts | 90° |
| 2026-05-06 16:54 | 51.16532 | 0.20484 | 10528 ft | 289 kts | 89° |
| 2026-05-06 16:54 | 51.16552 | 0.23703 | 11355 ft | 291 kts | 88° |
| 2026-05-06 16:55 | 51.16571 | 0.26950 | 12144 ft | 295 kts | 88° |
| 2026-05-06 16:55 | 51.16586 | 0.30243 | 12915 ft | 298 kts | 89° |
| 2026-05-06 16:55 | 51.16592 | 0.33559 | 13737 ft | 300 kts | 88° |
| 2026-05-06 16:55 | 51.16595 | 0.36904 | 14422 ft | 304 kts | 89° |
| 2026-05-06 16:56 | 51.16596 | 0.40292 | 15078 ft | 308 kts | 89° |
| 2026-05-06 16:56 | 51.16594 | 0.43718 | 15756 ft | 311 kts | 89° |
| 2026-05-06 16:56 | 51.16591 | 0.47176 | 16450 ft | 313 kts | 90° |
| 2026-05-06 16:56 | 51.16588 | 0.50691 | 16958 ft | 323 kts | 90° |
| 2026-05-06 16:57 | 51.16586 | 0.54328 | 17141 ft | 341 kts | 90° |
| 2026-05-06 16:57 | 51.16584 | 0.58215 | 17326 ft | 359 kts | 90° |
| 2026-05-06 16:57 | 51.16581 | 0.62281 | 17633 ft | 371 kts | 90° |
| 2026-05-06 16:57 | 51.16576 | 0.66421 | 18270 ft | 374 kts | 90° |
| 2026-05-06 16:58 | 51.16573 | 0.69168 | 18666 ft | 375 kts | 91° |
| 2026-05-06 16:58 | 51.16566 | 0.73351 | 19214 ft | 379 kts | 91° |
| 2026-05-06 16:58 | 51.16557 | 0.77573 | 19736 ft | 383 kts | 91° |
| 2026-05-06 16:58 | 51.16548 | 0.81825 | 20335 ft | 384 kts | 91° |
| 2026-05-06 16:59 | 51.16536 | 0.86115 | 20850 ft | 389 kts | 91° |
| 2026-05-06 16:59 | 51.16522 | 0.90397 | 21389 ft | 391 kts | 91° |
| 2026-05-06 16:59 | 51.16507 | 0.94760 | 21944 ft | 394 kts | 92° |
| 2026-05-06 16:59 | 51.16488 | 0.99142 | 22513 ft | 396 kts | 91° |
| 2026-05-06 17:00 | 51.16469 | 1.03565 | 22859 ft | 401 kts | 92° |
| 2026-05-06 17:00 | 51.16448 | 1.08008 | 22960 ft | 399 kts | 91° |
| 2026-05-06 17:00 | 51.16424 | 1.12435 | 22963 ft | 400 kts | 91° |
| 2026-05-06 17:00 | 51.16400 | 1.16865 | 22963 ft | 399 kts | 92° |
| 2026-05-06 17:01 | 51.16394 | 1.17934 | 22962 ft | 398 kts | 92° |
| 2026-05-06 17:01 | 51.16370 | 1.21806 | 22962 ft | 399 kts | 92° |
| 2026-05-06 17:01 | 51.16340 | 1.26181 | 22963 ft | 400 kts | 92° |
| 2026-05-06 17:01 | 51.16310 | 1.30612 | 22959 ft | 398 kts | 92° |
| 2026-05-06 17:02 | 51.16276 | 1.35028 | 22959 ft | 400 kts | 92° |
| 2026-05-06 17:02 | 51.16096 | 1.39467 | 22956 ft | 400 kts | 96° |
| 2026-05-06 17:02 | 51.15881 | 1.43889 | 22952 ft | 397 kts | 96° |
| 2026-05-06 17:02 | 51.15674 | 1.48270 | 22954 ft | 395 kts | 96° |
| 2026-05-06 17:03 | 51.15468 | 1.52606 | 22954 ft | 398 kts | 96° |
| 2026-05-06 17:03 | 51.15259 | 1.56995 | 22951 ft | 396 kts | 96° |
| 2026-05-06 17:03 | 51.15045 | 1.61367 | 22952 ft | 397 kts | 96° |
| 2026-05-06 17:03 | 51.14828 | 1.65773 | 22951 ft | 398 kts | 96° |
| 2026-05-06 17:04 | 51.14610 | 1.70171 | 22953 ft | 396 kts | 96° |
| 2026-05-06 17:04 | 51.14389 | 1.74563 | 22947 ft | 399 kts | 96° |
| 2026-05-06 17:04 | 51.14168 | 1.78917 | 22948 ft | 398 kts | 96° |
| 2026-05-06 17:04 | 51.13945 | 1.83319 | 22946 ft | 397 kts | 96° |
| 2026-05-06 17:05 | 51.13720 | 1.87700 | 22962 ft | 399 kts | 96° |
| 2026-05-06 17:05 | 51.13492 | 1.92115 | 22957 ft | 399 kts | 96° |
| 2026-05-06 17:05 | 51.13263 | 1.96521 | 22959 ft | 398 kts | 96° |
| 2026-05-06 17:05 | 51.13032 | 2.00925 | 22960 ft | 399 kts | 96° |
| 2026-05-06 17:06 | 51.12800 | 2.05305 | 23119 ft | 403 kts | 97° |
| 2026-05-06 17:06 | 51.12564 | 2.09753 | 23699 ft | 403 kts | 97° |
| 2026-05-06 17:06 | 51.12323 | 2.14225 | 24101 ft | 407 kts | 97° |
| 2026-05-06 17:06 | 51.12080 | 2.18741 | 24550 ft | 409 kts | 97° |
| 2026-05-06 17:07 | 51.11833 | 2.23286 | 24968 ft | 413 kts | 97° |
| 2026-05-06 17:07 | 51.11585 | 2.27807 | 25327 ft | 416 kts | 97° |
| 2026-05-06 17:07 | 51.11331 | 2.32416 | 25753 ft | 418 kts | 97° |
| 2026-05-06 17:07 | 51.11074 | 2.37048 | 26148 ft | 421 kts | 97° |
| 2026-05-06 17:08 | 51.10812 | 2.41718 | 26502 ft | 425 kts | 97° |
| 2026-05-06 17:08 | 51.10547 | 2.46431 | 26887 ft | 427 kts | 97° |
| 2026-05-06 17:08 | 51.10279 | 2.51159 | 27265 ft | 430 kts | 97° |